Time;durP1;ratioP1;P1;durP2;ratioP2;P2;SDS_P1;SDS_P2;PMS_P1;PMS_P2;Temp;Humidity;BMP_temperature;BMP_pressure;BME280_temperature;BME280_humidity;BME280_pressure;Samples;Min_cycle;Max_cycle;Signal;HPM_P1;HPM_P2
2023/06/08 00:00:10;;;;;;;;;12.25;12.25;;;;;;;;5070874;28;9562;-83
2023/06/08 00:02:38;;;;;;;;;16.50;15.75;;;;;;;;5070341;28;9758;-83
2023/06/08 00:05:12;;;;;;;;;11.50;11.50;;;;;;;;5070890;28;8897;-83
2023/06/08 00:07:42;;;;;;;;;18.25;16.25;;;;;;;;5066574;28;8956;-83
2023/06/08 00:10:10;;;;;;;;;15.75;15.75;;;;;;;;5060197;28;8919;-83
2023/06/08 00:12:38;;;;;;;;;17.00;17.00;;;;;;;;5061868;28;8915;-81
2023/06/08 00:15:07;;;;;;;;;15.25;13.50;;;;;;;;5056102;28;8984;-82
2023/06/08 00:17:38;;;;;;;;;18.75;18.75;;;;;;;;5062480;28;8854;-83
2023/06/08 00:20:08;;;;;;;;;20.75;19.25;;;;;;;;5059321;28;8943;-83
2023/06/08 00:22:36;;;;;;;;;18.00;18.00;;;;;;;;5054801;28;8861;-83
2023/06/08 00:25:06;;;;;;;;;22.75;20.50;;;;;;;;5070614;28;8949;-83
2023/06/08 00:27:33;;;;;;;;;19.25;16.50;;;;;;;;5070996;28;8851;-83
2023/06/08 00:30:00;;;;;;;;;22.25;22.25;;;;;;;;5066816;28;8834;-83
2023/06/08 00:32:27;;;;;;;;;22.75;22.75;;;;;;;;5056682;28;8857;-83
2023/06/08 00:34:55;;;;;;;;;26.33;22.33;;;;;;;;5055815;28;9010;-83
2023/06/08 00:37:22;;;;;;;;;21.50;21.00;;;;;;;;5073024;28;8905;-83
2023/06/08 00:39:49;;;;;;;;;17.75;17.75;;;;;;;;5059895;28;8831;-82
2023/06/08 00:42:18;;;;;;;;;25.25;25.25;;;;;;;;5071102;28;8867;-82
2023/06/08 00:44:45;;;;;;;;;23.00;21.25;;;;;;;;5057326;28;8839;-83
2023/06/08 00:47:13;;;;;;;;;16.00;16.00;;;;;;;;5059644;28;8893;-83
2023/06/08 00:49:40;;;;;;;;;20.50;18.00;;;;;;;;5064080;28;8866;-83
2023/06/08 00:52:10;;;;;;;;;18.50;18.50;;;;;;;;5061093;28;8991;-83
2023/06/08 00:54:39;;;;;;;;;21.00;21.00;;;;;;;;5071733;28;8855;-82
2023/06/08 00:57:09;;;;;;;;;18.50;17.00;;;;;;;;5055524;28;8945;-83
2023/06/08 00:59:38;;;;;;;;;13.25;11.75;;;;;;;;5053181;28;8826;-83
2023/06/08 01:02:06;;;;;;;;;17.25;17.25;;;;;;;;5059393;28;8925;-82
2023/06/08 01:04:35;;;;;;;;;15.25;15.25;;;;;;;;5072225;28;8870;-83
2023/06/08 01:07:14;;;;;;;;;15.75;15.25;;;;;;;;5066929;28;8947;-83
2023/06/08 01:09:45;;;;;;;;;19.00;19.00;;;;;;;;5065805;28;8870;-83
2023/06/08 01:12:19;;;;;;;;;17.25;15.50;;;;;;;;5069937;28;8851;-83
2023/06/08 01:14:59;;;;;;;;;15.50;15.50;;;;;;;;5070193;28;9001;-83
2023/06/08 01:17:32;;;;;;;;;17.50;15.50;;;;;;;;5069936;28;8862;-82
2023/06/08 01:20:09;;;;;;;;;17.50;16.75;;;;;;;;5059703;28;8876;-82
2023/06/08 01:22:56;;;;;;;;;18.25;18.25;;;;;;;;5054338;28;8870;-83
2023/06/08 01:25:28;;;;;;;;;23.25;19.00;;;;;;;;5070023;28;8877;-83
2023/06/08 01:28:12;;;;;;;;;18.25;17.75;;;;;;;;5067872;28;8867;-81
2023/06/08 01:30:40;;;;;;;;;18.25;17.50;;;;;;;;5068996;28;8826;-82
2023/06/08 01:33:08;;;;;;;;;18.25;18.25;;;;;;;;5064634;28;8850;-82
2023/06/08 01:35:36;;;;;;;;;18.00;18.00;;;;;;;;5051332;28;8942;-83
2023/06/08 01:38:11;;;;;;;;;20.75;20.00;;;;;;;;5068122;28;8827;-83
2023/06/08 01:40:45;;;;;;;;;19.50;19.50;;;;;;;;5069309;28;8851;-82
2023/06/08 01:43:14;;;;;;;;;20.75;20.75;;;;;;;;5062513;28;8979;-83
2023/06/08 01:45:46;;;;;;;;;17.50;16.75;;;;;;;;5064088;28;9022;-83
2023/06/08 01:48:15;;;;;;;;;19.50;19.25;;;;;;;;5067246;28;8921;-83
2023/06/08 01:50:43;;;;;;;;;22.75;21.25;;;;;;;;5066962;28;8842;-82
2023/06/08 01:53:11;;;;;;;;;18.50;18.50;;;;;;;;5059963;28;8857;-83
2023/06/08 01:55:39;;;;;;;;;17.00;17.00;;;;;;;;5065268;28;8916;-82
2023/06/08 01:58:07;;;;;;;;;26.75;23.75;;;;;;;;5059232;28;8847;-83
2023/06/08 02:00:34;;;;;;;;;18.75;18.50;;;;;;;;5067258;28;8794;-83
2023/06/08 02:03:01;;;;;;;;;20.25;18.25;;;;;;;;5064135;28;8839;-83
2023/06/08 02:05:29;;;;;;;;;17.25;16.25;;;;;;;;5068271;28;8855;-82
2023/06/08 02:07:56;;;;;;;;;17.50;16.25;;;;;;;;5069764;28;8843;-82
2023/06/08 02:10:24;;;;;;;;;17.50;17.00;;;;;;;;5060677;28;8874;-82
2023/06/08 02:12:53;;;;;;;;;19.25;18.25;;;;;;;;5065944;28;8937;-82
2023/06/08 02:15:20;;;;;;;;;22.25;21.00;;;;;;;;5064081;28;9609;-82
2023/06/08 02:17:51;;;;;;;;;20.50;19.75;;;;;;;;5053288;28;8858;-82
2023/06/08 02:20:18;;;;;;;;;23.25;21.50;;;;;;;;5063028;28;8845;-83
2023/06/08 02:22:45;;;;;;;;;21.50;21.50;;;;;;;;5053362;28;8958;-82
2023/06/08 02:25:13;;;;;;;;;23.25;23.00;;;;;;;;5069093;28;8886;-82
2023/06/08 02:27:43;;;;;;;;;24.00;21.75;;;;;;;;5065795;28;8953;-80
2023/06/08 02:30:14;;;;;;;;;27.67;24.67;;;;;;;;5068794;28;8842;-82
2023/06/08 02:32:41;;;;;;;;;23.75;22.25;;;;;;;;5069235;28;8995;-82
2023/06/08 02:35:09;;;;;;;;;24.75;23.25;;;;;;;;5069822;28;8843;-82
2023/06/08 02:37:36;;;;;;;;;17.25;15.75;;;;;;;;5070280;28;8854;-82
2023/06/08 02:40:04;;;;;;;;;22.00;22.00;;;;;;;;5071100;28;8969;-81
2023/06/08 02:42:32;;;;;;;;;21.25;21.00;;;;;;;;5070778;28;8858;-82
2023/06/08 02:44:59;;;;;;;;;22.50;22.50;;;;;;;;5052124;28;8880;-82
2023/06/08 02:47:28;;;;;;;;;24.50;22.75;;;;;;;;5062117;28;8866;-83
2023/06/08 02:49:55;;;;;;;;;20.50;20.50;;;;;;;;5062986;28;8909;-83
2023/06/08 02:52:23;;;;;;;;;23.50;23.50;;;;;;;;5061462;28;8969;-83
2023/06/08 02:54:50;;;;;;;;;24.00;23.00;;;;;;;;5055200;28;8854;-82
2023/06/08 02:57:18;;;;;;;;;27.00;25.33;;;;;;;;5061997;28;9605;-83
2023/06/08 02:59:45;;;;;;;;;24.25;23.50;;;;;;;;5056660;28;9067;-83
2023/06/08 03:02:12;;;;;;;;;26.33;26.33;;;;;;;;5066166;28;8841;-83
2023/06/08 03:04:43;;;;;;;;;25.33;25.33;;;;;;;;5055979;28;9171;-82
2023/06/08 03:07:15;;;;;;;;;28.00;28.00;;;;;;;;5056299;28;9031;-82
2023/06/08 03:09:42;;;;;;;;;22.33;21.00;;;;;;;;5067728;28;9287;-82
2023/06/08 03:12:12;;;;;;;;;25.00;25.00;;;;;;;;5053340;28;9186;-82
2023/06/08 03:14:40;;;;;;;;;26.67;26.67;;;;;;;;5055402;28;9094;-82
2023/06/08 03:17:08;;;;;;;;;28.67;27.33;;;;;;;;5056520;28;9072;-82
2023/06/08 03:19:35;;;;;;;;;31.67;27.33;;;;;;;;5064150;28;9335;-82
2023/06/08 03:22:06;;;;;;;;;22.67;22.67;;;;;;;;5067550;28;9040;-82
2023/06/08 03:24:34;;;;;;;;;27.33;25.00;;;;;;;;5063454;28;9021;-83
2023/06/08 03:27:02;;;;;;;;;26.00;26.00;;;;;;;;5062943;28;9100;-83
2023/06/08 03:29:30;;;;;;;;;25.00;25.00;;;;;;;;5068246;28;9107;-83
2023/06/08 03:31:58;;;;;;;;;31.00;28.00;;;;;;;;5067577;28;8990;-83
2023/06/08 03:34:27;;;;;;;;;21.33;21.00;;;;;;;;5069902;28;10031;-82
2023/06/08 03:36:55;;;;;;;;;27.67;27.67;;;;;;;;5061613;28;9139;-83
2023/06/08 03:39:24;;;;;;;;;30.00;29.67;;;;;;;;5057621;28;9293;-82
2023/06/08 03:41:52;;;;;;;;;29.33;29.00;;;;;;;;5067770;28;9444;-81
2023/06/08 03:44:20;;;;;;;;;30.33;28.67;;;;;;;;5058012;28;9246;-82
2023/06/08 03:46:47;;;;;;;;;28.00;28.00;;;;;;;;5066470;28;9250;-82
2023/06/08 03:49:14;;;;;;;;;33.75;30.50;;;;;;;;5071002;28;9309;-82
2023/06/08 03:51:42;;;;;;;;;25.00;24.33;;;;;;;;5071015;28;9580;-83
2023/06/08 03:54:09;;;;;;;;;28.00;27.33;;;;;;;;5071744;28;9455;-83
2023/06/08 03:56:40;;;;;;;;;33.67;30.67;;;;;;;;5071871;28;9307;-82
2023/06/08 03:59:07;;;;;;;;;35.00;29.50;;;;;;;;5064196;28;9399;-82
2023/06/08 04:01:35;;;;;;;;;34.00;29.33;;;;;;;;5059141;28;9472;-82
2023/06/08 04:04:03;;;;;;;;;31.00;29.50;;;;;;;;5070501;28;9390;-82
2023/06/08 04:06:33;;;;;;;;;31.25;30.25;;;;;;;;5065227;28;9536;-82
2023/06/08 04:09:01;;;;;;;;;36.50;32.00;;;;;;;;5056143;28;9550;-83
2023/06/08 04:11:28;;;;;;;;;32.50;28.50;;;;;;;;5065026;28;9557;-84
2023/06/08 04:13:57;;;;;;;;;33.00;30.50;;;;;;;;5064095;28;9728;-87
2023/06/08 04:16:24;;;;;;;;;34.75;30.00;;;;;;;;5053108;28;9773;-80
2023/06/08 04:18:53;;;;;;;;;32.50;31.00;;;;;;;;5072136;28;9625;-77
2023/06/08 04:21:21;;;;;;;;;32.50;31.50;;;;;;;;5070044;28;9718;-81
2023/06/08 04:23:48;;;;;;;;;33.25;29.75;;;;;;;;5061348;28;9850;-80
2023/06/08 04:26:16;;;;;;;;;33.00;31.75;;;;;;;;5058910;28;9956;-80
2023/06/08 04:28:44;;;;;;;;;33.50;30.00;;;;;;;;5069404;28;9712;-80
2023/06/08 04:31:12;;;;;;;;;31.25;30.75;;;;;;;;5063624;28;9741;-80
2023/06/08 04:33:39;;;;;;;;;33.75;30.25;;;;;;;;5066419;28;9714;-79
2023/06/08 04:36:07;;;;;;;;;34.75;32.00;;;;;;;;5070134;28;9615;-80
2023/06/08 04:38:37;;;;;;;;;32.25;29.25;;;;;;;;5068738;28;9795;-80
2023/06/08 04:41:07;;;;;;;;;37.25;31.75;;;;;;;;5061542;28;9614;-80
2023/06/08 04:43:35;;;;;;;;;33.75;31.50;;;;;;;;5056146;28;9542;-80
2023/06/08 04:46:04;;;;;;;;;34.75;31.00;;;;;;;;5065374;28;9731;-80
2023/06/08 04:48:34;;;;;;;;;33.50;28.00;;;;;;;;5073865;28;10272;-80
2023/06/08 04:51:03;;;;;;;;;29.50;27.75;;;;;;;;5063181;28;9480;-79
2023/06/08 04:53:33;;;;;;;;;35.00;31.25;;;;;;;;5060021;28;9625;-80
2023/06/08 04:56:01;;;;;;;;;35.75;32.25;;;;;;;;5070038;28;9474;-80
2023/06/08 04:58:29;;;;;;;;;36.00;32.50;;;;;;;;5061198;28;9594;-80
2023/06/08 05:00:57;;;;;;;;;34.67;30.00;;;;;;;;5062307;28;9494;-80
2023/06/08 05:03:25;;;;;;;;;30.00;30.00;;;;;;;;5060743;28;9403;-78
2023/06/08 05:05:54;;;;;;;;;32.00;31.00;;;;;;;;5068301;28;9539;-78
2023/06/08 05:08:24;;;;;;;;;30.33;30.00;;;;;;;;5070016;28;9488;-80
2023/06/08 05:10:54;;;;;;;;;39.25;33.50;;;;;;;;5062798;28;9368;-80
2023/06/08 05:13:24;;;;;;;;;32.33;30.00;;;;;;;;5056468;28;9671;-80
2023/06/08 05:15:57;;;;;;;;;36.67;33.33;;;;;;;;5069110;28;9301;-79
2023/06/08 05:18:25;;;;;;;;;33.67;31.67;;;;;;;;5068949;28;9461;-79
2023/06/08 05:20:53;;;;;;;;;32.67;30.00;;;;;;;;5067134;28;9426;-78
2023/06/08 05:23:21;;;;;;;;;38.33;33.67;;;;;;;;5068161;28;9280;-78
2023/06/08 05:25:48;;;;;;;;;31.00;29.33;;;;;;;;5067888;28;9172;-79
2023/06/08 05:28:15;;;;;;;;;39.33;32.67;;;;;;;;5068106;28;9093;-79
2023/06/08 05:30:44;;;;;;;;;28.33;28.33;;;;;;;;5066265;28;9245;-78
2023/06/08 05:33:11;;;;;;;;;30.33;29.00;;;;;;;;5058679;28;9185;-79
2023/06/08 05:35:41;;;;;;;;;38.67;33.33;;;;;;;;5059700;28;9091;-77
2023/06/08 05:38:09;;;;;;;;;36.00;31.67;;;;;;;;5069061;28;9315;-77
2023/06/08 05:40:39;;;;;;;;;34.00;31.33;;;;;;;;5054909;28;9109;-78
2023/06/08 05:43:06;;;;;;;;;36.00;31.67;;;;;;;;5068711;28;10189;-77
2023/06/08 05:45:33;;;;;;;;;38.33;32.33;;;;;;;;5069068;28;9089;-84
2023/06/08 05:48:03;;;;;;;;;36.33;33.00;;;;;;;;5064116;28;9319;-80
2023/06/08 05:50:30;;;;;;;;;32.33;31.33;;;;;;;;5068686;28;9075;-77
2023/06/08 05:52:58;;;;;;;;;37.33;31.33;;;;;;;;5066390;28;8967;-78
2023/06/08 05:55:27;;;;;;;;;34.25;31.25;;;;;;;;5060307;28;9009;-78
2023/06/08 05:57:54;;;;;;;;;27.00;27.00;;;;;;;;5070105;28;8862;-78
2023/06/08 06:00:22;;;;;;;;;30.50;29.75;;;;;;;;5069450;28;8867;-79
2023/06/08 06:02:49;;;;;;;;;35.75;31.50;;;;;;;;5069747;28;8854;-79
2023/06/08 06:05:20;;;;;;;;;31.25;29.50;;;;;;;;5068916;28;8877;-79
2023/06/08 06:07:47;;;;;;;;;38.25;32.50;;;;;;;;5068002;28;8879;-78
2023/06/08 06:10:15;;;;;;;;;33.25;29.50;;;;;;;;5058855;28;8834;-78
2023/06/08 06:12:43;;;;;;;;;31.75;30.25;;;;;;;;5067869;28;8890;-78
2023/06/08 06:15:11;;;;;;;;;34.00;30.75;;;;;;;;5068513;28;9002;-78
2023/06/08 06:17:38;;;;;;;;;37.75;32.75;;;;;;;;5067849;28;8873;-78
2023/06/08 06:20:07;;;;;;;;;34.25;30.00;;;;;;;;5061623;28;8965;-78
2023/06/08 06:22:34;;;;;;;;;40.00;32.00;;;;;;;;5055370;28;8871;-78
2023/06/08 06:25:02;;;;;;;;;38.75;34.25;;;;;;;;5068261;28;8965;-77
2023/06/08 06:27:29;;;;;;;;;35.00;31.00;;;;;;;;5068110;28;8859;-79
2023/06/08 06:29:58;;;;;;;;;43.50;37.00;;;;;;;;5067011;28;8854;-81
2023/06/08 06:32:25;;;;;;;;;37.50;32.75;;;;;;;;5047194;28;8807;-79
2023/06/08 06:34:52;;;;;;;;;38.33;34.00;;;;;;;;5048346;28;8855;-79
2023/06/08 06:37:19;;;;;;;;;39.50;35.00;;;;;;;;5047869;28;9124;-81
2023/06/08 06:39:47;;;;;;;;;40.50;32.75;;;;;;;;5046974;28;8851;-79
2023/06/08 06:42:15;;;;;;;;;44.75;35.25;;;;;;;;5047030;28;8866;-80
2023/06/08 06:44:42;;;;;;;;;33.25;32.00;;;;;;;;5048423;28;8848;-79
2023/06/08 06:47:10;;;;;;;;;42.75;36.50;;;;;;;;5048509;28;8843;-79
2023/06/08 06:49:38;;;;;;;;;45.50;36.75;;;;;;;;5047433;28;9002;-79
2023/06/08 06:52:05;;;;;;;;;41.00;36.00;;;;;;;;5049123;28;8883;-80
2023/06/08 06:54:33;;;;;;;;;39.25;33.75;;;;;;;;5049527;28;8870;-82
2023/06/08 06:57:00;;;;;;;;;45.25;35.25;;;;;;;;5047476;28;8847;-82
2023/06/08 06:59:29;;;;;;;;;39.75;32.75;;;;;;;;5049425;28;8846;-82
2023/06/08 07:01:56;;;;;;;;;36.25;33.25;;;;;;;;5048385;28;8822;-83
2023/06/08 07:04:25;;;;;;;;;37.25;33.00;;;;;;;;5045373;28;8855;-77
2023/06/08 07:06:53;;;;;;;;;36.75;33.00;;;;;;;;5051363;28;8871;-79
2023/06/08 07:09:21;;;;;;;;;29.75;27.75;;;;;;;;5051316;28;8855;-78
2023/06/08 07:11:48;;;;;;;;;41.75;35.50;;;;;;;;5049310;28;9043;-79
2023/06/08 07:14:16;;;;;;;;;37.00;34.00;;;;;;;;5046835;28;8847;-79
2023/06/08 07:16:43;;;;;;;;;34.00;32.00;;;;;;;;5048962;28;8916;-78
2023/06/08 07:19:11;;;;;;;;;44.25;35.25;;;;;;;;5050708;28;9646;-76
2023/06/08 07:21:40;;;;;;;;;39.25;34.50;;;;;;;;5044891;28;8873;-79
2023/06/08 07:24:08;;;;;;;;;35.50;32.00;;;;;;;;5045650;28;8847;-80
2023/06/08 07:26:35;;;;;;;;;42.00;34.75;;;;;;;;5054326;28;8839;-79
2023/06/08 07:29:03;;;;;;;;;33.75;32.00;;;;;;;;5052795;28;8870;-80
2023/06/08 07:31:31;;;;;;;;;38.00;33.00;;;;;;;;5054706;28;8796;-82
2023/06/08 07:33:59;;;;;;;;;46.00;38.75;;;;;;;;5054807;28;9301;-82
2023/06/08 07:36:28;;;;;;;;;36.00;30.50;;;;;;;;5053369;28;8854;-82
2023/06/08 07:38:56;;;;;;;;;42.25;35.50;;;;;;;;5052632;28;8849;-81
2023/06/08 07:41:26;;;;;;;;;40.50;33.25;;;;;;;;5048570;28;8867;-82
2023/06/08 07:43:53;;;;;;;;;41.00;35.75;;;;;;;;5051785;28;9752;-79
2023/06/08 07:46:20;;;;;;;;;32.50;30.00;;;;;;;;5041787;28;8940;-80
2023/06/08 07:48:48;;;;;;;;;38.75;33.25;;;;;;;;5047120;28;8879;-79
2023/06/08 07:51:15;;;;;;;;;37.75;33.00;;;;;;;;5050598;28;8851;-78
2023/06/08 07:53:42;;;;;;;;;40.75;34.00;;;;;;;;5050769;28;8866;-79
2023/06/08 07:56:11;;;;;;;;;37.50;33.75;;;;;;;;5051107;28;8886;-79
2023/06/08 07:58:38;;;;;;;;;35.25;32.00;;;;;;;;5050497;28;8879;-78
2023/06/08 08:01:05;;;;;;;;;38.75;33.50;;;;;;;;5050374;28;8806;-78
2023/06/08 08:03:38;;;;;;;;;41.75;35.25;;;;;;;;5045595;28;8886;-78
2023/06/08 08:06:06;;;;;;;;;38.25;34.75;;;;;;;;5045454;28;9684;-79
2023/06/08 08:08:33;;;;;;;;;38.75;33.25;;;;;;;;5049903;28;8855;-78
2023/06/08 08:11:00;;;;;;;;;38.00;33.00;;;;;;;;5051064;28;8863;-78
2023/06/08 08:13:29;;;;;;;;;40.00;34.00;;;;;;;;5052848;28;8855;-79
2023/06/08 08:15:56;;;;;;;;;30.25;29.00;;;;;;;;5046271;28;8839;-78
2023/06/08 08:18:23;;;;;;;;;35.00;29.75;;;;;;;;5051082;28;8866;-78
2023/06/08 08:20:51;;;;;;;;;37.75;33.75;;;;;;;;5050139;28;8863;-78
2023/06/08 08:23:18;;;;;;;;;33.75;31.25;;;;;;;;5038761;28;8974;-77
2023/06/08 08:25:45;;;;;;;;;33.75;31.25;;;;;;;;5050265;28;8831;-78
2023/06/08 08:28:13;;;;;;;;;29.00;29.00;;;;;;;;5050502;28;8847;-78
2023/06/08 08:30:42;;;;;;;;;40.25;33.75;;;;;;;;5050029;28;8824;-80
2023/06/08 08:33:09;;;;;;;;;35.25;33.00;;;;;;;;5051836;28;8875;-79
2023/06/08 08:35:37;;;;;;;;;37.00;33.00;;;;;;;;5051665;28;8867;-79
2023/06/08 08:38:04;;;;;;;;;38.25;32.75;;;;;;;;5052031;28;8986;-79
2023/06/08 08:40:31;;;;;;;;;34.75;32.75;;;;;;;;5047639;28;8853;-80
2023/06/08 08:43:06;;;;;;;;;37.75;32.25;;;;;;;;5048221;28;8970;-77
2023/06/08 08:45:36;;;;;;;;;34.00;31.25;;;;;;;;5048068;28;8948;-79
2023/06/08 08:48:07;;;;;;;;;33.50;31.50;;;;;;;;5049061;28;8932;-79
2023/06/08 08:50:38;;;;;;;;;27.80;27.80;;;;;;;;5049456;28;9555;-80
2023/06/08 08:53:06;;;;;;;;;32.00;29.60;;;;;;;;5049031;28;8970;-84
2023/06/08 08:55:34;;;;;;;;;33.20;31.00;;;;;;;;5050423;28;8850;-80
2023/06/08 08:58:02;;;;;;;;;31.80;30.00;;;;;;;;5049195;28;8859;-83
2023/06/08 09:00:31;;;;;;;;;28.80;28.60;;;;;;;;5047893;28;8757;-81
2023/06/08 09:02:58;;;;;;;;;31.40;28.20;;;;;;;;5046859;28;8849;-80
2023/06/08 09:05:27;;;;;;;;;34.40;31.00;;;;;;;;5049169;28;8851;-80
2023/06/08 09:07:55;;;;;;;;;34.00;30.60;;;;;;;;5050811;28;8839;-81
2023/06/08 09:10:25;;;;;;;;;28.80;26.00;;;;;;;;5051614;28;8881;-82
2023/06/08 09:12:54;;;;;;;;;24.20;23.00;;;;;;;;5048985;28;8839;-81
2023/06/08 09:15:27;;;;;;;;;25.80;25.80;;;;;;;;5038217;28;8998;-81
2023/06/08 09:17:55;;;;;;;;;27.80;27.80;;;;;;;;5050598;28;8855;-80
2023/06/08 09:20:34;;;;;;;;;27.20;27.20;;;;;;;;5047019;28;8871;-79
2023/06/08 09:23:15;;;;;;;;;24.40;24.40;;;;;;;;5039365;28;8883;-79
2023/06/08 09:25:43;;;;;;;;;22.80;22.40;;;;;;;;5039823;28;8876;-80
2023/06/08 09:28:17;;;;;;;;;28.20;26.40;;;;;;;;5048844;28;9013;-82
2023/06/08 09:30:45;;;;;;;;;28.60;25.80;;;;;;;;5039693;28;8871;-79
2023/06/08 09:33:23;;;;;;;;;33.60;29.40;;;;;;;;5049050;28;8835;-82
2023/06/08 09:36:07;;;;;;;;;27.00;25.40;;;;;;;;5049535;28;8913;-81
2023/06/08 09:38:35;;;;;;;;;29.80;28.20;;;;;;;;5039386;28;8841;-84
2023/06/08 09:41:19;;;;;;;;;28.40;26.60;;;;;;;;5043788;28;8855;-84
2023/06/08 09:43:48;;;;;;;;;26.00;26.00;;;;;;;;5046843;28;9667;-83
2023/06/08 09:46:34;;;;;;;;;25.40;25.40;;;;;;;;5049086;28;8855;-79
2023/06/08 09:49:03;;;;;;;;;25.00;23.20;;;;;;;;5048762;28;8862;-83
2023/06/08 09:51:35;;;;;;;;;28.40;26.00;;;;;;;;5043063;28;8882;-80
2023/06/08 09:54:02;;;;;;;;;20.80;20.20;;;;;;;;5036069;28;8870;-81
2023/06/08 09:56:30;;;;;;;;;24.20;24.20;;;;;;;;5047990;28;9288;-83
2023/06/08 09:58:58;;;;;;;;;22.40;21.80;;;;;;;;5043121;28;8996;-82
2023/06/08 10:01:33;;;;;;;;;26.60;25.40;;;;;;;;5047546;28;9558;-80
2023/06/08 10:04:07;;;;;;;;;21.80;21.80;;;;;;;;5048359;28;8881;-85
2023/06/08 10:06:36;;;;;;;;;22.20;22.00;;;;;;;;5048539;28;8935;-84
2023/06/08 10:09:07;;;;;;;;;25.20;25.20;;;;;;;;5048580;28;8843;-83
2023/06/08 10:11:35;;;;;;;;;25.00;25.00;;;;;;;;5048285;28;8903;-76
2023/06/08 10:14:03;;;;;;;;;20.40;20.40;;;;;;;;5048578;28;8840;-81
2023/06/08 10:16:31;;;;;;;;;21.00;20.20;;;;;;;;5049997;28;8956;-79
2023/06/08 10:18:59;;;;;;;;;25.00;23.80;;;;;;;;5045468;28;8932;-81
2023/06/08 10:21:27;;;;;;;;;22.40;22.40;;;;;;;;5042711;28;8870;-84
2023/06/08 10:23:57;;;;;;;;;26.40;24.80;;;;;;;;5042038;28;8851;-79
2023/06/08 10:26:24;;;;;;;;;23.80;22.40;;;;;;;;5048580;28;8859;-76
2023/06/08 10:29:06;;;;;;;;;24.20;22.80;;;;;;;;5040265;28;8865;-82
2023/06/08 10:31:36;;;;;;;;;24.00;23.20;;;;;;;;5044573;28;8779;-81
2023/06/08 10:34:08;;;;;;;;;23.40;20.80;;;;;;;;5045041;28;8847;-80
2023/06/08 10:36:39;;;;;;;;;20.00;20.00;;;;;;;;5039362;28;8850;-82
2023/06/08 10:39:10;;;;;;;;;20.00;20.00;;;;;;;;5044822;28;8919;-81
2023/06/08 10:41:39;;;;;;;;;22.60;22.60;;;;;;;;5041711;28;9622;-82
2023/06/08 10:44:06;;;;;;;;;17.80;17.80;;;;;;;;5034824;28;8853;-84
2023/06/08 10:46:43;;;;;;;;;18.80;18.80;;;;;;;;5045003;28;8959;-85
2023/06/08 10:49:11;;;;;;;;;20.00;18.00;;;;;;;;5046858;28;8893;-83
2023/06/08 10:51:44;;;;;;;;;17.40;17.40;;;;;;;;5047235;28;9423;-86
2023/06/08 10:54:21;;;;;;;;;25.00;23.80;;;;;;;;5037280;28;8944;-81
2023/06/08 10:56:52;;;;;;;;;22.00;22.00;;;;;;;;5047283;28;8863;-85
2023/06/08 10:59:27;;;;;;;;;23.40;23.20;;;;;;;;5039082;28;8998;-83
2023/06/08 11:01:55;;;;;;;;;21.40;21.40;;;;;;;;5048232;28;8815;-80
2023/06/08 11:04:23;;;;;;;;;20.00;19.40;;;;;;;;5047030;28;8856;-80
2023/06/08 11:06:52;;;;;;;;;21.00;20.80;;;;;;;;5047327;28;8883;-80
2023/06/08 11:09:21;;;;;;;;;18.80;18.80;;;;;;;;5046521;28;9673;-84
2023/06/08 11:11:51;;;;;;;;;23.40;22.20;;;;;;;;5048098;28;8875;-87
2023/06/08 11:14:22;;;;;;;;;20.00;18.40;;;;;;;;5047115;28;8855;-80
2023/06/08 11:16:52;;;;;;;;;19.40;19.40;;;;;;;;5048784;28;8948;-83
2023/06/08 11:19:19;;;;;;;;;16.80;16.60;;;;;;;;5046184;28;8877;-81
2023/06/08 11:21:50;;;;;;;;;17.60;17.60;;;;;;;;5047692;28;8850;-83
2023/06/08 11:24:17;;;;;;;;;20.80;19.00;;;;;;;;5046597;28;8858;-81
2023/06/08 11:26:46;;;;;;;;;19.20;19.20;;;;;;;;5048152;28;9635;-82
2023/06/08 11:29:14;;;;;;;;;16.80;15.60;;;;;;;;5046623;28;8858;-81
2023/06/08 11:31:41;;;;;;;;;22.40;22.40;;;;;;;;5045702;28;8806;-77
2023/06/08 11:34:13;;;;;;;;;18.80;18.80;;;;;;;;5048135;28;8873;-80
2023/06/08 11:36:42;;;;;;;;;20.40;20.40;;;;;;;;5047515;28;8879;-81
2023/06/08 11:39:10;;;;;;;;;23.00;20.20;;;;;;;;5047499;28;8859;-82
2023/06/08 11:41:40;;;;;;;;;19.00;19.00;;;;;;;;5047817;28;8855;-81
2023/06/08 11:44:09;;;;;;;;;19.80;19.80;;;;;;;;5048655;28;8857;-86
2023/06/08 11:46:37;;;;;;;;;20.60;20.60;;;;;;;;5048372;28;8847;-81
2023/06/08 11:49:09;;;;;;;;;20.20;18.80;;;;;;;;5049181;28;8855;-80
2023/06/08 11:51:47;;;;;;;;;17.80;17.80;;;;;;;;5048392;28;8932;-85
2023/06/08 11:54:15;;;;;;;;;20.40;19.80;;;;;;;;5051429;28;8851;-79
2023/06/08 11:56:45;;;;;;;;;18.40;17.00;;;;;;;;5051023;28;8849;-81
2023/06/08 11:59:16;;;;;;;;;22.80;21.40;;;;;;;;5049730;28;8855;-85
2023/06/08 12:01:56;;;;;;;;;17.80;17.60;;;;;;;;5050803;28;8791;-92
2023/06/08 12:04:31;;;;;;;;;20.60;19.60;;;;;;;;5051466;28;8898;-94
2023/06/08 12:06:59;;;;;;;;;21.20;20.00;;;;;;;;5050758;28;8944;-86
2023/06/08 12:09:27;;;;;;;;;16.00;16.00;;;;;;;;5050843;28;8854;-84
2023/06/08 12:11:55;;;;;;;;;19.40;19.40;;;;;;;;5052501;28;8865;-82
2023/06/08 12:14:24;;;;;;;;;15.00;15.00;;;;;;;;5055090;28;8866;-78
2023/06/08 12:16:53;;;;;;;;;14.00;13.40;;;;;;;;5054057;28;8855;-82
2023/06/08 12:19:29;;;;;;;;;14.20;14.20;;;;;;;;5053798;28;8851;-81
2023/06/08 12:21:56;;;;;;;;;17.80;16.60;;;;;;;;5046074;28;8869;-85
2023/06/08 12:24:24;;;;;;;;;16.00;16.00;;;;;;;;5051855;28;8854;-85
2023/06/08 12:26:51;;;;;;;;;18.60;18.60;;;;;;;;5053745;28;8859;-81
2023/06/08 12:29:25;;;;;;;;;11.00;11.00;;;;;;;;5049143;28;8886;-82
2023/06/08 12:31:53;;;;;;;;;17.20;16.40;;;;;;;;5031327;28;8934;-86
2023/06/08 12:34:20;;;;;;;;;16.60;16.60;;;;;;;;5048531;28;8859;-84
2023/06/08 12:36:48;;;;;;;;;18.00;17.80;;;;;;;;5041647;28;8881;-84
2023/06/08 12:39:21;;;;;;;;;19.80;19.20;;;;;;;;5049414;28;8851;-84
2023/06/08 12:41:48;;;;;;;;;18.20;17.40;;;;;;;;5051269;28;8875;-89
2023/06/08 12:44:16;;;;;;;;;18.00;18.00;;;;;;;;5051492;28;8839;-84
2023/06/08 12:46:48;;;;;;;;;20.80;19.60;;;;;;;;5050936;28;8839;-86
2023/06/08 12:49:15;;;;;;;;;17.60;17.60;;;;;;;;5041424;28;8871;-86
2023/06/08 12:51:45;;;;;;;;;17.60;17.40;;;;;;;;5055892;28;8863;-89
2023/06/08 12:54:13;;;;;;;;;18.00;18.00;;;;;;;;5052682;28;8881;-82
2023/06/08 12:56:40;;;;;;;;;17.40;17.40;;;;;;;;5049525;28;8847;-83
2023/06/08 12:59:08;;;;;;;;;16.40;16.40;;;;;;;;5049835;28;8866;-82
2023/06/08 13:01:36;;;;;;;;;16.40;16.40;;;;;;;;5049132;28;8815;-85
2023/06/08 13:04:05;;;;;;;;;17.00;17.00;;;;;;;;5048687;28;8887;-84
2023/06/08 13:06:32;;;;;;;;;19.40;19.40;;;;;;;;5050231;28;8871;-84
2023/06/08 13:09:00;;;;;;;;;13.60;13.60;;;;;;;;5051167;28;8855;-83
2023/06/08 13:11:29;;;;;;;;;19.00;19.00;;;;;;;;5036457;28;9575;-85
2023/06/08 13:13:58;;;;;;;;;17.40;17.40;;;;;;;;5050635;28;8924;-83
2023/06/08 13:16:29;;;;;;;;;17.80;17.80;;;;;;;;5049779;28;8843;-84
2023/06/08 13:19:04;;;;;;;;;15.40;15.40;;;;;;;;5050999;28;8851;-83
2023/06/08 13:21:36;;;;;;;;;16.00;16.00;;;;;;;;5042712;28;9709;-86
2023/06/08 13:24:06;;;;;;;;;20.60;19.20;;;;;;;;5045194;28;8854;-86
2023/06/08 13:26:34;;;;;;;;;17.20;17.20;;;;;;;;5051148;28;8855;-83
2023/06/08 13:29:03;;;;;;;;;20.60;17.80;;;;;;;;5051928;28;9018;-84
2023/06/08 13:31:32;;;;;;;;;15.00;15.00;;;;;;;;5039728;28;8791;-84
2023/06/08 13:34:04;;;;;;;;;16.40;14.80;;;;;;;;5051062;28;8932;-85
2023/06/08 13:36:36;;;;;;;;;15.20;15.20;;;;;;;;5047276;28;8897;-84
2023/06/08 13:39:05;;;;;;;;;18.60;16.80;;;;;;;;5042547;28;8843;-85
2023/06/08 13:41:37;;;;;;;;;18.80;16.60;;;;;;;;5044171;28;8886;-86
2023/06/08 13:44:05;;;;;;;;;21.40;19.60;;;;;;;;5049983;28;8871;-83
2023/06/08 13:46:35;;;;;;;;;17.20;16.80;;;;;;;;5050762;28;8851;-87
2023/06/08 13:49:05;;;;;;;;;17.20;15.60;;;;;;;;5050383;28;8879;-88
2023/06/08 13:51:34;;;;;;;;;23.60;17.40;;;;;;;;5047386;28;8857;-89
2023/06/08 13:54:15;;;;;;;;;15.40;15.40;;;;;;;;5053593;28;8867;-87
2023/06/08 13:56:44;;;;;;;;;12.40;12.40;;;;;;;;5053796;28;8867;-87
2023/06/08 13:59:12;;;;;;;;;15.80;15.80;;;;;;;;5053333;28;8952;-88
2023/06/08 14:01:39;;;;;;;;;16.00;16.00;;;;;;;;5051100;28;8949;-88
2023/06/08 14:04:06;;;;;;;;;13.60;13.60;;;;;;;;5050126;28;8862;-87
2023/06/08 14:06:35;;;;;;;;;15.40;13.80;;;;;;;;5053924;28;9009;-87
2023/06/08 14:09:04;;;;;;;;;12.80;12.80;;;;;;;;5048094;28;8859;-86
2023/06/08 14:11:33;;;;;;;;;16.00;16.00;;;;;;;;5048973;28;8952;-86
2023/06/08 14:14:02;;;;;;;;;11.40;11.40;;;;;;;;5041426;28;8897;-86
2023/06/08 14:16:32;;;;;;;;;16.00;16.00;;;;;;;;5048185;28;8898;-86
2023/06/08 14:19:03;;;;;;;;;14.20;14.20;;;;;;;;5043156;28;8845;-87
2023/06/08 14:21:30;;;;;;;;;12.80;12.80;;;;;;;;5043035;28;9597;-87
2023/06/08 14:23:59;;;;;;;;;13.40;13.40;;;;;;;;5043965;28;8859;-87
2023/06/08 14:26:26;;;;;;;;;12.20;12.20;;;;;;;;5048460;28;8855;-87
2023/06/08 14:28:54;;;;;;;;;13.80;13.80;;;;;;;;5049585;28;8944;-87
2023/06/08 14:31:21;;;;;;;;;14.20;14.20;;;;;;;;5052768;28;8808;-87
2023/06/08 14:33:54;;;;;;;;;15.40;13.60;;;;;;;;5047405;28;8883;-87
2023/06/08 14:36:22;;;;;;;;;11.20;11.20;;;;;;;;5049503;28;8891;-87
2023/06/08 14:38:49;;;;;;;;;12.80;12.80;;;;;;;;5046488;28;8874;-87
2023/06/08 14:41:18;;;;;;;;;12.00;12.00;;;;;;;;5048138;28;8867;-86